Time;durP1;ratioP1;P1;durP2;ratioP2;P2;SDS_P1;SDS_P2;PMS_P1;PMS_P2;Temp;Humidity;BMP_temperature;BMP_pressure;BME280_temperature;BME280_humidity;BME280_pressure;Samples;Min_cycle;Max_cycle;Signal;HPM_P1;HPM_P2
2022/03/27 00:00:43;;;;;;;8.25;4.38;;;7.50;99.90;;;;;;5001379;28;20372;-59
2022/03/27 00:03:09;;;;;;;8.20;4.75;;;7.50;99.90;;;;;;5008545;28;20117;-60
2022/03/27 00:05:35;;;;;;;7.70;4.18;;;7.50;99.90;;;;;;5009058;28;20052;-60
2022/03/27 00:08:01;;;;;;;9.07;4.85;;;7.40;99.90;;;;;;5001085;28;20487;-59
2022/03/27 00:10:27;;;;;;;9.43;4.68;;;7.50;99.90;;;;;;5006934;28;20038;-57
2022/03/27 00:12:52;;;;;;;7.50;4.45;;;7.40;99.90;;;;;;5007860;28;20095;-59
2022/03/27 00:15:18;;;;;;;7.25;4.38;;;7.40;99.90;;;;;;5000755;28;20494;-59
2022/03/27 00:17:44;;;;;;;7.43;4.57;;;7.40;99.90;;;;;;5006156;28;20034;-60
2022/03/27 00:20:12;;;;;;;8.02;5.05;;;7.30;99.90;;;;;;5008955;28;20080;-60
2022/03/27 00:22:38;;;;;;;10.45;4.82;;;7.30;99.90;;;;;;5004036;28;20038;-59
2022/03/27 00:25:06;;;;;;;7.45;4.00;;;7.30;99.90;;;;;;5000031;28;20099;-59
2022/03/27 00:27:32;;;;;;;7.72;4.68;;;7.40;99.90;;;;;;5002974;28;20048;-60
2022/03/27 00:29:59;;;;;;;6.20;4.95;;;7.40;99.90;;;;;;5010070;28;20046;-58
2022/03/27 00:32:24;;;;;;;7.97;5.15;;;7.40;99.90;;;;;;5006586;28;20041;-59
2022/03/27 00:34:51;;;;;;;7.63;4.35;;;7.40;99.90;;;;;;5013432;28;20045;-59
2022/03/27 00:37:17;;;;;;;10.13;5.63;;;7.40;99.90;;;;;;4988554;28;20044;-59
2022/03/27 00:39:43;;;;;;;10.98;6.00;;;7.40;99.90;;;;;;5003642;28;20517;-60
2022/03/27 00:42:09;;;;;;;15.20;7.65;;;7.40;99.90;;;;;;4990536;28;20417;-60
2022/03/27 00:44:36;;;;;;;14.85;8.20;;;7.40;99.90;;;;;;5006552;28;20041;-56
2022/03/27 00:47:03;;;;;;;17.08;9.55;;;7.30;99.90;;;;;;5009049;28;20042;-59
2022/03/27 00:49:28;;;;;;;15.82;8.93;;;7.20;99.90;;;;;;5009330;28;20258;-60
2022/03/27 00:51:55;;;;;;;15.50;7.95;;;7.20;99.90;;;;;;5013980;28;20056;-60
2022/03/27 00:54:22;;;;;;;16.15;8.80;;;7.20;99.90;;;;;;4988614;28;20096;-59
2022/03/27 00:56:48;;;;;;;18.08;8.45;;;7.20;99.90;;;;;;5006923;28;20398;-60
2022/03/27 00:59:14;;;;;;;10.93;7.03;;;7.30;99.90;;;;;;4961423;28;21183;-60
2022/03/27 01:01:40;;;;;;;14.35;8.90;;;7.30;99.90;;;;;;4955805;28;20101;-61
2022/03/27 01:04:07;;;;;;;15.23;8.23;;;7.40;99.90;;;;;;4991394;28;20441;-61
2022/03/27 01:06:39;;;;;;;13.70;7.15;;;7.40;99.90;;;;;;4978423;28;20034;-61
2022/03/27 01:11:51;;;;;;;14.48;6.97;;;7.40;99.90;;;;;;4990857;28;20056;-61
2022/03/27 01:14:22;;;;;;;11.68;6.20;;;7.40;99.90;;;;;;4989337;28;20033;-61
2022/03/27 01:17:10;;;;;;;11.60;6.50;;;7.30;99.90;;;;;;4994386;28;20112;-61
2022/03/27 01:19:50;;;;;;;13.88;7.63;;;7.30;99.90;;;;;;4982835;28;20088;-61
2022/03/27 01:22:17;;;;;;;15.05;7.63;;;7.30;99.90;;;;;;4990382;28;21670;-61
2022/03/27 01:24:45;;;;;;;11.52;6.45;;;7.30;99.90;;;;;;4998562;28;20495;-61
2022/03/27 01:27:11;;;;;;;10.55;6.45;;;7.20;99.90;;;;;;4995304;28;20038;-61
2022/03/27 01:29:37;;;;;;;16.75;6.82;;;7.20;99.90;;;;;;4994254;28;20180;-61
2022/03/27 01:32:04;;;;;;;8.48;4.75;;;7.20;99.90;;;;;;4982808;28;20070;-61
2022/03/27 01:34:31;;;;;;;12.63;5.75;;;7.20;99.90;;;;;;4990332;28;20045;-61
2022/03/27 01:37:00;;;;;;;12.82;6.70;;;7.20;99.90;;;;;;4986718;28;20961;-61
2022/03/27 01:39:26;;;;;;;13.73;6.50;;;7.20;99.90;;;;;;4988358;28;20084;-61
2022/03/27 01:41:52;;;;;;;14.43;6.65;;;7.20;99.90;;;;;;4996352;28;20518;-60
2022/03/27 01:44:19;;;;;;;14.10;6.70;;;7.20;99.90;;;;;;4991540;28;20101;-61
2022/03/27 01:46:45;;;;;;;15.95;5.88;;;7.20;99.90;;;;;;4993286;28;20054;-61
2022/03/27 01:49:13;;;;;;;13.40;6.60;;;7.30;99.90;;;;;;4992347;28;20526;-61
2022/03/27 01:51:41;;;;;;;11.80;6.07;;;7.30;99.90;;;;;;4991785;28;20534;-61
2022/03/27 01:54:07;;;;;;;13.75;6.07;;;7.20;99.90;;;;;;4996235;28;20766;-61
2022/03/27 01:56:32;;;;;;;10.95;6.43;;;7.30;99.90;;;;;;4992981;28;20083;-61
2022/03/27 01:58:58;;;;;;;12.35;6.43;;;7.30;99.90;;;;;;4998003;28;20045;-61
2022/03/27 02:01:24;;;;;;;12.63;6.55;;;7.30;99.90;;;;;;4983432;28;20042;-61
2022/03/27 02:03:50;;;;;;;14.10;6.82;;;7.30;99.90;;;;;;4972127;28;20046;-61
2022/03/27 02:06:16;;;;;;;13.32;6.63;;;7.30;99.90;;;;;;4966175;28;20633;-61
2022/03/27 02:08:43;;;;;;;13.05;6.25;;;7.40;99.90;;;;;;4969582;28;20038;-61
2022/03/27 02:11:09;;;;;;;13.75;6.10;;;7.40;99.90;;;;;;4978896;28;20033;-61
2022/03/27 02:13:36;;;;;;;14.88;6.78;;;7.30;99.90;;;;;;4984557;28;20044;-61
2022/03/27 02:16:03;;;;;;;12.93;6.18;;;7.30;99.90;;;;;;4997697;28;20379;-61
2022/03/27 02:18:30;;;;;;;14.55;7.10;;;7.40;99.90;;;;;;4996163;28;20131;-61
2022/03/27 02:20:57;;;;;;;10.73;5.65;;;7.40;99.90;;;;;;4992783;28;20038;-61
2022/03/27 02:23:24;;;;;;;16.00;7.82;;;7.40;99.90;;;;;;4990139;28;20038;-61
2022/03/27 02:25:51;;;;;;;11.25;5.80;;;7.40;99.90;;;;;;4997662;28;20493;-61
2022/03/27 02:28:17;;;;;;;14.00;6.55;;;7.40;99.90;;;;;;4989848;28;20093;-61
2022/03/27 02:30:43;;;;;;;10.90;6.05;;;7.40;99.90;;;;;;5009939;28;20038;-61
2022/03/27 02:33:09;;;;;;;13.68;6.68;;;7.30;99.90;;;;;;4973194;28;20053;-61
2022/03/27 02:35:35;;;;;;;11.77;6.25;;;7.30;99.90;;;;;;4967081;28;20505;-61
2022/03/27 02:38:05;;;;;;;10.52;5.07;;;7.30;99.90;;;;;;4987417;28;20453;-61
2022/03/27 02:40:35;;;;;;;10.80;6.15;;;7.30;99.90;;;;;;4988594;28;20042;-61
2022/03/27 02:43:01;;;;;;;18.30;7.47;;;7.20;99.90;;;;;;4991881;28;20034;-61
2022/03/27 02:45:29;;;;;;;20.80;9.05;;;7.10;99.90;;;;;;4994720;28;20042;-61
2022/03/27 02:47:56;;;;;;;19.00;9.60;;;7.10;99.90;;;;;;4973608;28;20353;-61
2022/03/27 02:50:22;;;;;;;16.90;8.05;;;7.00;99.90;;;;;;4997649;28;20125;-61
2022/03/27 02:52:48;;;;;;;18.85;9.95;;;7.00;99.90;;;;;;5009709;23;20073;-57
2022/03/27 02:55:14;;;;;;;14.85;7.63;;;7.20;99.90;;;;;;4986226;28;20041;-56
2022/03/27 02:57:40;;;;;;;15.20;7.50;;;6.90;99.90;;;;;;4994903;28;20588;-54
2022/03/27 03:00:07;;;;;;;19.30;7.95;;;6.90;99.90;;;;;;4991133;28;20028;-55
2022/03/27 03:02:34;;;;;;;12.20;6.80;;;6.80;99.90;;;;;;4988659;28;20388;-55
2022/03/27 03:05:00;;;;;;;18.75;8.00;;;6.70;99.90;;;;;;4973398;28;20038;-55
2022/03/27 03:07:26;;;;;;;15.20;7.18;;;6.80;99.90;;;;;;4969631;28;20045;-54
2022/03/27 03:09:52;;;;;;;18.55;8.63;;;6.80;99.90;;;;;;4973762;28;20088;-54
2022/03/27 03:12:18;;;;;;;15.48;7.70;;;6.70;99.90;;;;;;4963804;28;22928;-57
2022/03/27 03:14:44;;;;;;;16.25;6.82;;;6.70;99.90;;;;;;4966422;28;20553;-57
2022/03/27 03:17:10;;;;;;;17.55;7.60;;;6.70;99.90;;;;;;4969791;28;20972;-56
2022/03/27 03:19:36;;;;;;;11.70;6.10;;;6.70;99.90;;;;;;4969579;28;20038;-55
2022/03/27 03:22:02;;;;;;;14.98;7.60;;;6.70;99.90;;;;;;4977716;28;20159;-55
2022/03/27 03:24:28;;;;;;;14.13;6.60;;;6.70;99.90;;;;;;4967427;28;20084;-57
2022/03/27 03:26:54;;;;;;;14.65;6.15;;;6.70;99.90;;;;;;4970223;28;20414;-55
2022/03/27 03:29:21;;;;;;;17.02;7.07;;;6.70;99.90;;;;;;4968963;28;20117;-55
2022/03/27 03:31:47;;;;;;;15.85;5.43;;;6.70;99.90;;;;;;4966762;28;20045;-56
2022/03/27 03:34:13;;;;;;;17.10;7.13;;;6.70;99.90;;;;;;4955404;28;20042;-54
2022/03/27 03:36:39;;;;;;;18.15;7.18;;;6.60;99.90;;;;;;4970008;28;20058;-56
2022/03/27 03:39:05;;;;;;;15.60;6.03;;;6.70;99.90;;;;;;4949585;28;20033;-54
2022/03/27 03:41:31;;;;;;;18.50;7.35;;;6.70;99.90;;;;;;4947921;28;20467;-57
2022/03/27 03:43:57;;;;;;;15.57;6.72;;;6.70;99.90;;;;;;4968124;28;20184;-58
2022/03/27 03:46:22;;;;;;;12.50;5.88;;;6.60;99.90;;;;;;4943569;28;20048;-57
2022/03/27 03:48:48;;;;;;;15.77;6.57;;;6.60;99.90;;;;;;4993203;28;20276;-57
2022/03/27 03:51:14;;;;;;;12.90;6.80;;;6.50;99.90;;;;;;4995307;28;20164;-56
2022/03/27 03:53:40;;;;;;;12.88;5.95;;;6.50;99.90;;;;;;4994042;28;20122;-54
2022/03/27 03:56:06;;;;;;;14.52;5.60;;;6.50;99.90;;;;;;4993192;28;20549;-57
2022/03/27 03:58:32;;;;;;;11.18;5.32;;;6.40;99.90;;;;;;5000715;28;20037;-56
2022/03/27 04:00:57;;;;;;;12.38;4.97;;;6.50;99.90;;;;;;5001511;28;20111;-56
2022/03/27 04:03:23;;;;;;;12.20;4.63;;;6.40;99.90;;;;;;4991241;28;20261;-56
2022/03/27 04:05:49;;;;;;;18.02;5.53;;;6.40;99.90;;;;;;4993831;28;20044;-57
2022/03/27 04:08:14;;;;;;;20.55;5.55;;;6.30;99.90;;;;;;4992465;28;20077;-58
2022/03/27 04:10:41;;;;;;;18.77;6.30;;;6.30;99.90;;;;;;4974666;28;20045;-56
2022/03/27 04:13:09;;;;;;;12.48;5.30;;;6.30;99.90;;;;;;4993103;28;20046;-57
2022/03/27 04:15:35;;;;;;;11.18;4.63;;;6.30;99.90;;;;;;4988013;28;20609;-57
2022/03/27 04:18:01;;;;;;;20.17;5.95;;;6.30;99.90;;;;;;4983215;28;20089;-57
2022/03/27 04:20:27;;;;;;;13.00;4.72;;;6.30;99.90;;;;;;4964729;28;20910;-55
2022/03/27 04:22:53;;;;;;;16.17;5.10;;;6.30;99.90;;;;;;4994429;28;20077;-56
2022/03/27 04:25:19;;;;;;;15.77;5.35;;;6.30;99.90;;;;;;4977166;28;20141;-57
2022/03/27 04:27:45;;;;;;;14.75;5.32;;;6.30;99.90;;;;;;4982380;28;20037;-56
2022/03/27 04:30:12;;;;;;;23.92;6.80;;;6.30;99.90;;;;;;4994795;28;20034;-55
2022/03/27 04:32:38;;;;;;;12.15;5.20;;;6.20;99.90;;;;;;4990213;28;20045;-56
2022/03/27 04:35:06;;;;;;;23.73;6.78;;;6.20;99.90;;;;;;4987190;28;20060;-58
2022/03/27 04:37:36;;;;;;;13.55;5.45;;;6.20;99.90;;;;;;4970465;28;20130;-55
2022/03/27 04:40:03;;;;;;;15.38;5.22;;;6.20;99.90;;;;;;4977995;28;20045;-56
2022/03/27 04:42:29;;;;;;;17.02;4.93;;;6.20;99.90;;;;;;4961382;28;20466;-56
2022/03/27 04:44:55;;;;;;;15.32;5.53;;;6.20;99.90;;;;;;4944993;28;20042;-54
2022/03/27 04:47:22;;;;;;;17.60;5.60;;;6.20;99.90;;;;;;4975832;28;20038;-53
2022/03/27 04:49:48;;;;;;;23.73;6.30;;;6.10;99.90;;;;;;4951375;28;20454;-55
2022/03/27 04:52:13;;;;;;;21.98;5.47;;;6.20;99.90;;;;;;4960748;28;20049;-56
2022/03/27 04:54:39;;;;;;;23.05;5.28;;;6.10;99.90;;;;;;4976629;28;20043;-53
2022/03/27 04:57:06;;;;;;;23.15;6.05;;;6.10;99.90;;;;;;4959985;28;20047;-56
2022/03/27 04:59:32;;;;;;;26.80;5.22;;;6.10;99.90;;;;;;4974829;28;20637;-54
2022/03/27 05:01:58;;;;;;;23.10;5.18;;;6.00;99.90;;;;;;4963858;28;20045;-58
2022/03/27 05:04:25;;;;;;;21.15;4.80;;;6.10;99.90;;;;;;4989787;28;20038;-57
2022/03/27 05:06:51;;;;;;;31.90;5.88;;;6.10;99.90;;;;;;4980394;28;20109;-56
2022/03/27 05:09:20;;;;;;;23.90;6.32;;;6.10;99.90;;;;;;4981037;28;20482;-57
2022/03/27 05:11:49;;;;;;;18.70;5.72;;;6.10;99.90;;;;;;4988294;28;20149;-53
2022/03/27 05:14:15;;;;;;;22.00;5.88;;;6.00;99.90;;;;;;4995154;28;20034;-58
2022/03/27 05:16:41;;;;;;;21.20;5.75;;;6.00;99.90;;;;;;4992270;28;20052;-56
2022/03/27 05:19:07;;;;;;;22.90;6.07;;;6.00;99.90;;;;;;4969266;28;20053;-57
2022/03/27 05:21:35;;;;;;;21.95;6.00;;;6.00;99.90;;;;;;4990595;28;20053;-53
2022/03/27 05:24:01;;;;;;;21.65;5.88;;;6.00;99.90;;;;;;4995168;28;20041;-56
2022/03/27 05:26:27;;;;;;;28.95;5.75;;;6.00;99.90;;;;;;4988984;28;20509;-58
2022/03/27 05:28:54;;;;;;;31.20;7.82;;;6.00;99.90;;;;;;4976667;28;20081;-56
2022/03/27 05:31:20;;;;;;;22.40;5.68;;;6.00;99.90;;;;;;4984086;28;20046;-57
2022/03/27 05:33:46;;;;;;;21.98;5.25;;;6.00;99.90;;;;;;4976536;28;20395;-57
2022/03/27 05:36:12;;;;;;;20.13;5.10;;;6.00;99.90;;;;;;4975705;28;20053;-57
2022/03/27 05:38:40;;;;;;;11.13;3.70;;;6.20;99.90;;;;;;4979878;28;20413;-56
2022/03/27 05:41:07;;;;;;;15.93;3.80;;;5.90;99.90;;;;;;4976116;28;20145;-53
2022/03/27 05:43:34;;;;;;;10.10;3.15;;;5.90;99.90;;;;;;5008529;28;20037;-56
2022/03/27 05:46:00;;;;;;;14.52;4.20;;;5.90;99.90;;;;;;4990920;28;20049;-55
2022/03/27 05:48:26;;;;;;;15.23;4.85;;;5.80;99.90;;;;;;4983366;28;20042;-57
2022/03/27 05:50:52;;;;;;;9.27;3.40;;;5.80;99.90;;;;;;4993177;28;20041;-55
2022/03/27 05:53:18;;;;;;;12.10;3.63;;;5.70;99.90;;;;;;4982780;28;20087;-60
2022/03/27 05:55:43;;;;;;;7.57;3.15;;;5.70;99.90;;;;;;4980108;28;20054;-57
2022/03/27 05:58:09;;;;;;;5.68;2.70;;;5.70;99.90;;;;;;4997410;28;20339;-55
2022/03/27 06:00:35;;;;;;;6.00;2.88;;;5.70;99.90;;;;;;4954389;28;20045;-58
2022/03/27 06:03:01;;;;;;;8.20;3.08;;;5.70;99.90;;;;;;4974112;28;20470;-56
2022/03/27 06:05:27;;;;;;;7.15;3.03;;;5.70;99.90;;;;;;4954122;28;20054;-55
2022/03/27 06:07:55;;;;;;;7.38;3.63;;;5.70;99.90;;;;;;4973099;28;20129;-60
2022/03/27 06:10:31;;;;;;;9.70;3.30;;;5.70;99.90;;;;;;4990884;28;20556;-60
2022/03/27 06:12:57;;;;;;;8.57;3.20;;;5.70;99.90;;;;;;4978991;28;20053;-55
2022/03/27 06:15:23;;;;;;;6.53;2.55;;;5.70;99.90;;;;;;4972651;28;20125;-56
2022/03/27 06:17:50;;;;;;;7.10;2.95;;;5.70;99.90;;;;;;4971137;28;20088;-57
2022/03/27 06:20:19;;;;;;;6.15;3.35;;;5.70;99.90;;;;;;4970457;28;20087;-58
2022/03/27 06:22:45;;;;;;;6.18;3.17;;;5.70;99.90;;;;;;4977892;28;20037;-56
2022/03/27 06:25:13;;;;;;;6.95;2.95;;;5.70;99.90;;;;;;4990857;28;20053;-55
2022/03/27 06:27:39;;;;;;;7.38;2.70;;;5.80;99.90;;;;;;4989415;28;20759;-53
2022/03/27 06:30:11;;;;;;;7.97;3.00;;;5.90;99.90;;;;;;4994868;28;20034;-55
2022/03/27 06:32:37;;;;;;;8.05;3.25;;;5.80;99.90;;;;;;4986277;28;20076;-56
2022/03/27 06:35:07;;;;;;;7.15;3.03;;;5.90;99.90;;;;;;4973693;28;20090;-58
2022/03/27 06:37:33;;;;;;;14.07;3.80;;;6.00;99.90;;;;;;4983947;28;20620;-56
2022/03/27 06:40:00;;;;;;;23.15;5.75;;;6.10;99.90;;;;;;4987072;28;20046;-56
2022/03/27 06:42:26;;;;;;;24.98;5.65;;;6.20;99.90;;;;;;4972787;28;20049;-56
2022/03/27 06:44:54;;;;;;;27.55;6.50;;;6.30;99.90;;;;;;4967790;28;20076;-54
2022/03/27 06:47:20;;;;;;;24.05;5.55;;;6.40;99.90;;;;;;4986123;28;20050;-61
2022/03/27 06:49:47;;;;;;;33.22;6.45;;;6.60;99.90;;;;;;4987916;28;20235;-56
2022/03/27 06:52:14;;;;;;;29.80;6.60;;;6.70;99.90;;;;;;4975075;28;20133;-58
2022/03/27 06:54:40;;;;;;;36.03;6.28;;;6.90;99.90;;;;;;4991411;28;20045;-58
2022/03/27 06:57:06;;;;;;;36.67;7.20;;;7.10;99.90;;;;;;4995380;28;20065;-56
2022/03/27 07:03:01;;;;;;;33.67;6.40;;;7.20;99.90;;;;;;4994393;28;20045;-54
2022/03/27 07:05:03;;;;;;;30.58;6.68;;;7.50;99.90;;;;;;4986378;28;20050;-57
2022/03/27 07:07:30;;;;;;;34.53;7.78;;;7.70;99.90;;;;;;4988088;28;20046;-57
2022/03/27 07:09:56;;;;;;;35.47;8.43;;;7.80;99.90;;;;;;4978926;28;20518;-58
2022/03/27 07:12:22;;;;;;;32.28;7.65;;;7.90;99.90;;;;;;4990909;28;20042;-56
2022/03/27 07:14:49;;;;;;;35.25;7.82;;;8.00;99.90;;;;;;4984497;28;20030;-57
2022/03/27 07:17:16;;;;;;;35.38;6.35;;;8.10;99.90;;;;;;4971993;28;20108;-55
2022/03/27 07:19:42;;;;;;;39.17;6.93;;;8.30;99.90;;;;;;4970513;28;20034;-52
2022/03/27 07:22:08;;;;;;;38.17;7.18;;;8.30;99.90;;;;;;4976360;28;20038;-52
2022/03/27 07:24:33;;;;;;;28.63;6.55;;;8.40;99.90;;;;;;4982882;28;20387;-58
2022/03/27 07:26:59;;;;;;;34.20;7.20;;;8.50;99.90;;;;;;4992487;28;20074;-54
2022/03/27 07:29:25;;;;;;;33.25;7.28;;;8.60;99.90;;;;;;4988846;28;20038;-57
2022/03/27 07:31:51;;;;;;;34.05;6.82;;;8.70;99.90;;;;;;4990040;28;20084;-55
2022/03/27 07:34:16;;;;;;;29.30;6.63;;;8.80;99.90;;;;;;4955137;28;20125;-55
2022/03/27 07:36:42;;;;;;;46.05;8.55;;;8.90;99.90;;;;;;4983715;28;20125;-55
2022/03/27 07:39:11;;;;;;;39.17;7.53;;;8.90;99.90;;;;;;4971759;28;20045;-60
2022/03/27 07:41:39;;;;;;;36.40;7.75;;;9.00;99.90;;;;;;4988149;28;20041;-53
2022/03/27 07:44:06;;;;;;;35.75;7.47;;;9.00;99.90;;;;;;4989052;28;20073;-56
2022/03/27 07:46:32;;;;;;;36.67;8.27;;;9.10;99.90;;;;;;5005597;28;20041;-55
2022/03/27 07:48:58;;;;;;;30.35;6.75;;;9.20;99.90;;;;;;4994491;28;20042;-55
2022/03/27 07:51:24;;;;;;;35.88;6.35;;;9.30;99.90;;;;;;4987438;28;20075;-54
2022/03/27 07:53:51;;;;;;;38.33;7.07;;;9.30;99.90;;;;;;4992989;28;20080;-57
2022/03/27 07:56:18;;;;;;;36.97;7.22;;;9.40;99.90;;;;;;4995814;28;20479;-54
2022/03/27 07:58:44;;;;;;;30.58;6.18;;;9.50;99.90;;;;;;4997370;28;20057;-55
2022/03/27 08:01:12;;;;;;;37.38;6.95;;;9.60;99.90;;;;;;5002583;28;20042;-56
2022/03/27 08:03:39;;;;;;;40.17;7.95;;;9.60;99.90;;;;;;4994137;28;20076;-56
2022/03/27 08:06:06;;;;;;;33.20;6.43;;;9.70;99.90;;;;;;4999125;28;20050;-59
2022/03/27 08:08:32;;;;;;;38.67;7.28;;;9.70;99.90;;;;;;4996923;28;20104;-58
2022/03/27 08:10:58;;;;;;;28.38;6.80;;;9.80;99.90;;;;;;4995998;28;20041;-54
2022/03/27 08:13:24;;;;;;;33.58;7.82;;;9.90;99.90;;;;;;4989409;28;20041;-56
2022/03/27 08:15:50;;;;;;;39.83;8.77;;;10.10;99.90;;;;;;4993268;28;20403;-58
2022/03/27 08:18:16;;;;;;;33.38;6.30;;;10.20;99.90;;;;;;4988749;28;20080;-58
2022/03/27 08:20:41;;;;;;;34.10;7.53;;;10.30;99.90;;;;;;4990229;28;20053;-56
2022/03/27 08:23:07;;;;;;;33.67;8.05;;;10.30;99.90;;;;;;4986052;28;20056;-61
2022/03/27 08:28:20;;;;;;;29.45;6.40;;;10.50;99.90;;;;;;4976933;28;20426;-58
2022/03/27 08:30:47;;;;;;;37.95;7.40;;;10.60;99.90;;;;;;4986646;28;20049;-57
2022/03/27 08:33:13;;;;;;;33.30;7.05;;;10.70;99.90;;;;;;5002955;28;20589;-61
2022/03/27 08:35:41;;;;;;;40.53;7.45;;;10.80;99.90;;;;;;5001016;28;20061;-56
2022/03/27 08:38:12;;;;;;;32.63;6.95;;;11.00;99.90;;;;;;4995666;28;20041;-57
2022/03/27 08:40:39;;;;;;;39.03;7.60;;;11.10;99.90;;;;;;4996585;28;20383;-55
2022/03/27 08:43:16;;;;;;;37.83;6.68;;;11.20;99.90;;;;;;4973117;28;20064;-58
2022/03/27 08:45:43;;;;;;;33.38;7.55;;;11.20;99.90;;;;;;4988349;28;20054;-59
2022/03/27 08:48:10;;;;;;;31.77;8.50;;;11.30;99.90;;;;;;4977481;28;20049;-55
2022/03/27 08:50:45;;;;;;;41.55;9.13;;;11.30;99.90;;;;;;4972477;28;20049;-59
2022/03/27 08:53:14;;;;;;;39.50;8.55;;;11.40;99.90;;;;;;4975063;28;20053;-58
2022/03/27 08:55:57;;;;;;;42.40;7.93;;;11.40;99.90;;;;;;4977169;28;20054;-59
2022/03/27 08:58:38;;;;;;;34.47;7.38;;;11.60;99.90;;;;;;4974410;28;20041;-57
2022/03/27 09:01:04;;;;;;;43.92;9.70;;;11.70;99.90;;;;;;4979691;28;20471;-56
2022/03/27 09:03:33;;;;;;;31.50;7.68;;;11.70;99.90;;;;;;4970437;28;20078;-59
2022/03/27 09:06:01;;;;;;;37.20;8.27;;;11.80;99.90;;;;;;4973129;28;20140;-60
2022/03/27 09:08:29;;;;;;;35.20;8.60;;;11.90;99.90;;;;;;4984597;28;20077;-59
2022/03/27 09:10:56;;;;;;;29.30;6.90;;;12.00;99.90;;;;;;4976060;28;20064;-57
2022/03/27 09:13:23;;;;;;;42.63;7.65;;;12.20;99.90;;;;;;4976825;28;20251;-56
2022/03/27 09:15:58;;;;;;;35.05;7.47;;;12.20;99.90;;;;;;4975783;28;20045;-56
2022/03/27 09:18:24;;;;;;;26.52;7.28;;;12.20;99.90;;;;;;4978817;28;20469;-58
2022/03/27 09:20:52;;;;;;;30.42;6.63;;;12.20;99.90;;;;;;4976879;28;20044;-58
2022/03/27 09:23:28;;;;;;;30.58;6.55;;;12.20;99.80;;;;;;4974938;28;20138;-58
2022/03/27 09:26:00;;;;;;;29.17;7.05;;;12.10;99.90;;;;;;4975303;28;20049;-56
2022/03/27 09:28:34;;;;;;;36.33;7.30;;;12.10;99.90;;;;;;4973262;28;20208;-58
2022/03/27 09:31:04;;;;;;;35.70;7.32;;;12.40;99.90;;;;;;4964938;28;20041;-58
2022/03/27 09:33:54;;;;;;;31.67;6.80;;;12.50;99.90;;;;;;4978450;28;20100;-58
2022/03/27 09:36:24;;;;;;;31.30;7.38;;;12.70;99.90;;;;;;4976459;28;20072;-64
2022/03/27 09:39:05;;;;;;;35.20;7.80;;;12.70;99.90;;;;;;4976615;28;20030;-56
2022/03/27 09:41:38;;;;;;;24.02;6.07;;;12.70;99.20;;;;;;4978105;28;20060;-56
2022/03/27 09:44:13;;;;;;;24.05;7.13;;;12.80;99.60;;;;;;4976210;28;20054;-58
2022/03/27 09:47:08;;;;;;;25.45;7.60;;;12.90;99.60;;;;;;4976507;28;20070;-58
2022/03/27 09:49:34;;;;;;;23.88;7.53;;;13.10;99.80;;;;;;4976695;28;20391;-58
2022/03/27 09:52:00;;;;;;;22.45;6.63;;;13.20;99.50;;;;;;4974049;28;20038;-61
2022/03/27 09:54:28;;;;;;;28.48;8.48;;;13.30;98.80;;;;;;4974392;28;20049;-57
2022/03/27 09:56:54;;;;;;;20.02;6.20;;;13.40;98.50;;;;;;4973952;28;20159;-58
2022/03/27 09:59:32;;;;;;;25.27;7.15;;;13.30;97.10;;;;;;4975645;28;20056;-59
2022/03/27 10:02:17;;;;;;;19.17;6.28;;;13.30;96.90;;;;;;4985291;28;20183;-55
2022/03/27 10:05:03;;;;;;;18.35;6.15;;;13.40;96.00;;;;;;4980489;28;20459;-56
2022/03/27 10:07:43;;;;;;;18.58;6.05;;;13.40;96.40;;;;;;4985013;28;20049;-59
2022/03/27 10:10:22;;;;;;;24.85;6.65;;;13.50;95.10;;;;;;4981196;28;20046;-60
2022/03/27 10:12:49;;;;;;;20.10;6.03;;;13.50;95.40;;;;;;4973031;28;20076;-58
2022/03/27 10:15:21;;;;;;;19.48;5.78;;;13.50;95.00;;;;;;4971294;28;20275;-59
2022/03/27 10:18:10;;;;;;;20.83;6.03;;;13.50;93.80;;;;;;4962872;28;20509;-57
2022/03/27 10:20:37;;;;;;;17.60;5.75;;;13.60;94.30;;;;;;4975382;28;20609;-57
2022/03/27 10:23:20;;;;;;;21.23;6.00;;;13.70;93.50;;;;;;4949489;28;20099;-56
2022/03/27 10:25:53;;;;;;;19.42;4.63;;;13.80;93.00;;;;;;4971435;28;20037;-55
2022/03/27 10:28:19;;;;;;;14.77;5.43;;;13.90;91.70;;;;;;4985070;28;20045;-55
2022/03/27 10:30:46;;;;;;;20.13;4.95;;;14.00;91.00;;;;;;4978291;28;20095;-53
2022/03/27 10:33:13;;;;;;;16.27;4.78;;;14.10;90.60;;;;;;4975682;28;20053;-57
2022/03/27 10:36:05;;;;;;;16.13;4.45;;;14.20;90.00;;;;;;4982310;28;20073;-52
2022/03/27 10:38:51;;;;;;;13.43;4.03;;;14.40;90.50;;;;;;5017239;28;20047;-58
2022/03/27 10:41:33;;;;;;;13.95;4.18;;;14.60;86.10;;;;;;5002636;28;20044;-58
2022/03/27 10:44:27;;;;;;;13.20;4.22;;;14.60;83.20;;;;;;4980497;28;20491;-58
2022/03/27 10:47:12;;;;;;;20.38;5.65;;;14.70;86.00;;;;;;4993754;28;20134;-57
2022/03/27 10:49:38;;;;;;;14.70;4.20;;;14.80;85.70;;;;;;4993089;28;20042;-58
2022/03/27 10:52:05;;;;;;;12.25;3.30;;;14.90;81.90;;;;;;5002451;28;20406;-57
2022/03/27 10:54:31;;;;;;;14.70;3.85;;;14.90;79.60;;;;;;5002515;28;20050;-57
2022/03/27 10:56:58;;;;;;;13.32;4.72;;;14.90;80.10;;;;;;4994299;28;20041;-57
2022/03/27 10:59:41;;;;;;;15.43;4.05;;;15.10;80.50;;;;;;4984960;28;20046;-56
2022/03/27 11:02:06;;;;;;;16.38;4.50;;;15.30;79.30;;;;;;4996782;28;20050;-55
2022/03/27 11:04:41;;;;;;;14.15;4.00;;;15.30;78.00;;;;;;4996731;28;20053;-59
2022/03/27 11:07:15;;;;;;;13.40;3.97;;;15.40;76.90;;;;;;4999119;28;20135;-59
2022/03/27 11:09:45;;;;;;;11.77;3.42;;;15.40;72.60;;;;;;5001215;28;20046;-56
2022/03/27 11:12:27;;;;;;;17.83;4.45;;;15.40;72.50;;;;;;4988410;28;20077;-58
2022/03/27 11:14:54;;;;;;;14.70;4.82;;;15.30;74.00;;;;;;4995725;28;20108;-59
2022/03/27 11:17:41;;;;;;;12.93;4.00;;;15.20;75.50;;;;;;4984658;28;20551;-57
2022/03/27 11:20:42;;;;;;;14.70;4.03;;;15.40;75.20;;;;;;5003132;28;20077;-56
2022/03/27 11:23:22;;;;;;;11.63;3.30;;;15.60;75.40;;;;;;5003056;28;20586;-58
2022/03/27 11:25:48;;;;;;;18.10;4.13;;;15.70;74.80;;;;;;5002950;28;20073;-55
2022/03/27 11:28:18;;;;;;;13.20;3.67;;;15.80;74.50;;;;;;4991983;28;20061;-58
2022/03/27 11:30:50;;;;;;;12.45;3.40;;;15.90;73.40;;;;;;4997111;28;20145;-56
2022/03/27 11:33:23;;;;;;;12.07;3.70;;;15.90;73.10;;;;;;5002762;28;20042;-58
2022/03/27 11:36:00;;;;;;;15.13;3.58;;;16.00;72.80;;;;;;5005417;28;20049;-60
2022/03/27 11:38:29;;;;;;;11.32;3.47;;;16.10;72.20;;;;;;4965034;28;20046;-59
2022/03/27 11:40:55;;;;;;;14.23;3.70;;;16.10;72.00;;;;;;4983651;28;20270;-56
2022/03/27 11:43:33;;;;;;;19.52;4.88;;;16.20;72.90;;;;;;4975973;28;20050;-54
2022/03/27 11:46:00;;;;;;;16.42;3.92;;;16.40;70.30;;;;;;4981050;28;20085;-57
2022/03/27 11:48:26;;;;;;;15.18;3.47;;;16.40;72.00;;;;;;4981575;28;20495;-58
2022/03/27 11:50:54;;;;;;;14.85;4.13;;;16.50;71.30;;;;;;4985687;28;20115;-57
2022/03/27 11:53:34;;;;;;;18.10;3.40;;;16.60;71.50;;;;;;5007349;28;20123;-58
2022/03/27 11:56:08;;;;;;;14.23;3.78;;;16.70;70.20;;;;;;5008337;28;20068;-58
2022/03/27 11:58:38;;;;;;;14.13;4.35;;;16.70;70.00;;;;;;5006994;28;20304;-59
2022/03/27 12:01:09;;;;;;;15.13;3.70;;;16.70;69.40;;;;;;4987574;28;20072;-57
2022/03/27 12:03:36;;;;;;;14.02;4.32;;;16.70;70.60;;;;;;4988688;28;20525;-59
2022/03/27 12:06:07;;;;;;;13.60;3.40;;;16.80;69.70;;;;;;5005973;28;20517;-59
2022/03/27 12:08:35;;;;;;;16.33;4.32;;;16.90;70.30;;;;;;5001662;28;20498;-57
2022/03/27 12:11:06;;;;;;;13.45;3.33;;;17.00;69.40;;;;;;5006116;28;20443;-54
2022/03/27 12:13:43;;;;;;;12.75;3.63;;;17.10;69.20;;;;;;4990404;28;20180;-57
2022/03/27 12:16:25;;;;;;;13.55;3.40;;;17.20;68.20;;;;;;5004398;28;20050;-57
2022/03/27 12:18:51;;;;;;;16.50;4.75;;;17.30;68.40;;;;;;5003341;28;20045;-59
2022/03/27 12:21:20;;;;;;;16.02;3.80;;;17.30;68.50;;;;;;5006466;28;20041;-54
2022/03/27 12:24:02;;;;;;;15.40;3.80;;;17.40;67.70;;;;;;5003707;28;20080;-58
2022/03/27 12:29:43;;;;;;;10.95;3.45;;;17.50;66.30;;;;;;5004802;28;20049;-58
2022/03/27 12:32:14;;;;;;;14.60;3.53;;;17.30;66.10;;;;;;5000496;28;20402;-58
2022/03/27 12:34:43;;;;;;;16.35;3.85;;;17.30;66.80;;;;;;5003573;28;20038;-57
2022/03/27 12:37:22;;;;;;;13.52;4.13;;;17.30;66.80;;;;;;5010967;28;20100;-55
2022/03/27 12:39:47;;;;;;;10.80;3.90;;;16.80;65.00;;;;;;5013999;28;20048;-57
2022/03/27 12:42:35;;;;;;;13.68;3.22;;;16.80;66.40;;;;;;4987811;28;20038;-58
2022/03/27 12:45:23;;;;;;;14.85;3.65;;;17.00;66.80;;;;;;5000142;28;20045;-55
2022/03/27 12:47:58;;;;;;;17.58;3.72;;;17.40;66.90;;;;;;5002599;28;20037;-59
2022/03/27 12:50:33;;;;;;;10.65;3.55;;;17.70;68.20;;;;;;4998946;28;20121;-55
2022/03/27 12:53:03;;;;;;;13.80;3.42;;;18.00;67.00;;;;;;4985456;28;20042;-57
2022/03/27 12:55:42;;;;;;;14.95;3.72;;;18.00;64.50;;;;;;4980858;28;20085;-58
2022/03/27 12:58:08;;;;;;;13.48;3.50;;;18.10;65.60;;;;;;5002838;28;20169;-59
2022/03/27 13:00:34;;;;;;;18.30;4.43;;;18.20;64.60;;;;;;5002993;28;20050;-58
2022/03/27 13:03:19;;;;;;;17.35;4.22;;;18.20;64.20;;;;;;4996796;28;20042;-59